Chicoutimi, Canada
Current Conditions -  °F | °C
As of 12:00 AM on Tuesday 23 Dec 2014 (Local Time) from CYBG Reporting Station
Overcast Overcast  
Wind Chill:   Ceiling: 2200
Heat Index:   Visibility: 25mi
Dew Point:   Wind: 0mph
Humidity: 79%   Direction: NA
Pressure: 30.37"   Gusts: NA
Location:  48.43°N, 71.06°W
Report Text: CYBG 230500Z 00000KT 25SM BKN022 OVC160 M13/M16 A3037 RMK SC5AS3 SLP301
Loading
Personal Weather Stations






























Interactive Weather Map New forecast layout! Learn more

10-Day Weather Forecast

Advertisements
Track Severe Weather on mobile